createdAt,value
2019-04-29T00:03:57.414Z,98615.31
2019-04-29T00:06:27.953Z,98615.50
2019-04-29T00:25:04.541Z,98624.41
2019-04-29T00:30:25.766Z,98623.29
2019-04-29T00:33:15.065Z,98619.49
2019-04-29T00:36:04.306Z,98617.28
2019-04-29T00:41:46.956Z,98613.45
2019-04-29T00:44:17.604Z,98619.52
2019-04-29T00:47:07.219Z,98628.23
2019-04-29T00:49:37.515Z,98622.35
2019-04-29T00:52:07.958Z,98630.06
2019-04-29T00:55:03.194Z,98629.86
2019-04-29T00:57:52.504Z,98634.54
2019-04-29T01:03:41.355Z,98628.21
2019-04-29T01:06:11.658Z,98625.30
2019-04-29T01:09:00.943Z,98633.66
2019-04-29T01:11:31.163Z,98632.45
2019-04-29T01:14:01.465Z,98627.77
2019-04-29T01:16:50.763Z,98633.84
2019-04-29T01:19:21.335Z,98627.88
2019-04-29T01:22:10.744Z,98631.06
2019-04-29T01:25:00.013Z,98629.06
2019-04-29T01:30:54.568Z,98631.34
2019-04-29T01:33:44.376Z,98637.44
2019-04-29T01:36:33.532Z,98630.88
2019-04-29T01:42:33.797Z,98634.23
2019-04-29T01:45:24.332Z,98633.70
2019-04-29T01:48:13.633Z,98638.52
2019-04-29T01:50:51.289Z,98639.92
2019-04-29T01:53:21.687Z,98642.73
2019-04-29T01:56:11.268Z,98636.67
2019-04-29T01:59:00.548Z,98609.98
2019-04-29T02:01:50.101Z,98489.98
2019-04-29T02:04:20.331Z,98634.61
2019-04-29T02:07:10.349Z,98632.95
2019-04-29T02:12:59.700Z,98628.40
2019-04-29T02:15:49.411Z,98632.78
2019-04-29T02:18:38.726Z,98641.91
2019-04-29T02:21:28.013Z,98638.39
2019-04-29T02:24:17.503Z,98639.17
2019-04-29T02:26:59.607Z,98634.95
2019-04-29T02:29:50.060Z,98637.16
2019-04-29T02:32:22.492Z,98631.56
2019-04-29T02:35:12.156Z,98632.44
2019-04-29T02:38:01.887Z,98636.04
2019-04-29T02:41:10.013Z,98637.95
2019-04-29T02:43:41.989Z,98642.86
2019-04-29T02:46:35.632Z,98634.69
2019-04-29T02:49:05.933Z,98634.75
2019-04-29T02:52:04.465Z,98637.28
2019-04-29T02:58:17.435Z,98630.42
2019-04-29T03:04:39.809Z,98634.55
2019-04-29T03:07:29.198Z,98632.41
2019-04-29T03:10:18.785Z,98628.71
2019-04-29T03:13:08.303Z,98624.83
2019-04-29T03:15:57.843Z,98629.95
2019-04-29T03:18:30.669Z,98629.22
2019-04-29T03:21:39.107Z,98625.00
2019-04-29T03:24:28.420Z,98628.52
2019-04-29T03:26:58.746Z,98624.00
2019-04-29T03:29:40.225Z,98626.56
2019-04-29T03:32:10.574Z,98629.17
2019-04-29T03:34:40.914Z,98626.66
2019-04-29T03:37:11.590Z,98624.56
2019-04-29T03:40:00.886Z,98628.56
2019-04-29T03:42:50.198Z,98624.27
2019-04-29T03:45:41.594Z,98623.98
2019-04-29T03:48:31.090Z,98634.63
2019-04-29T03:51:01.506Z,98626.58
2019-04-29T03:53:33.523Z,98623.20
2019-04-29T03:56:03.784Z,98621.05
2019-04-29T03:58:53.343Z,98631.00
2019-04-29T04:04:37.832Z,98629.36
2019-04-29T04:07:45.935Z,98633.26
2019-04-29T04:10:16.506Z,98633.66
2019-04-29T04:13:06.065Z,98629.87
2019-04-29T04:15:36.375Z,98629.85
2019-04-29T04:21:05.782Z,98627.65
2019-04-29T04:23:48.423Z,98629.37
2019-04-29T04:26:27.139Z,98626.34
2019-04-29T04:28:57.399Z,98624.69
2019-04-29T04:31:27.765Z,98636.17
2019-04-29T04:34:18.279Z,98641.52
2019-04-29T04:36:50.055Z,98640.56
2019-04-29T04:39:20.304Z,98640.56
2019-04-29T04:42:09.848Z,98640.95
2019-04-29T04:44:59.091Z,98643.87
2019-04-29T04:47:48.664Z,98648.17
2019-04-29T04:50:19.048Z,98651.56
2019-04-29T04:52:49.403Z,98651.56
2019-04-29T04:58:35.775Z,98659.97
2019-04-29T05:01:25.331Z,98656.90
2019-04-29T05:10:05.440Z,98668.31
2019-04-29T05:12:35.730Z,98669.08
2019-04-29T05:15:09.406Z,98666.44
2019-04-29T05:18:13.785Z,98672.33
2019-04-29T05:20:51.290Z,98674.74
2019-04-29T05:23:21.673Z,98676.77
2019-04-29T05:26:33.777Z,98672.31
2019-04-29T05:29:04.045Z,98664.23
2019-04-29T05:31:34.304Z,98670.36
2019-04-29T05:34:04.590Z,98674.82
2019-04-29T05:36:41.750Z,98680.08
2019-04-29T05:39:33.484Z,98680.56
2019-04-29T05:45:14.099Z,98688.18
2019-04-29T05:47:57.063Z,98683.06
2019-04-29T05:51:06.082Z,98682.73
2019-04-29T05:53:40.689Z,98686.70
2019-04-29T05:56:10.923Z,98692.40
2019-04-29T05:58:43.541Z,98692.85
2019-04-29T06:01:19.213Z,98696.39
2019-04-29T06:03:49.519Z,98703.04
2019-04-29T06:06:39.859Z,98701.20
2019-04-29T06:09:29.143Z,98698.59
2019-04-29T06:12:18.608Z,98694.27
2019-04-29T06:14:50.102Z,98699.52
2019-04-29T06:17:20.408Z,98691.25
2019-04-29T06:19:51.470Z,98694.52
2019-04-29T06:22:21.715Z,98697.59
2019-04-29T06:24:57.747Z,98696.84
2019-04-29T06:30:11.887Z,98622.45
2019-04-29T06:33:01.205Z,98706.94
2019-04-29T06:36:07.209Z,98708.59
2019-04-29T06:38:47.374Z,98714.57
2019-04-29T06:41:45.378Z,98718.34
2019-04-29T06:44:17.035Z,98717.48
2019-04-29T06:46:50.091Z,98719.13
2019-04-29T06:49:40.785Z,98720.84
2019-04-29T06:52:30.379Z,98723.45
2019-04-29T06:55:00.695Z,98733.59
2019-04-29T06:57:50.230Z,98721.08
2019-04-29T07:00:39.570Z,98727.33
2019-04-29T07:03:29.192Z,98721.13
2019-04-29T07:06:00.647Z,98723.02
2019-04-29T07:08:53.041Z,98721.97
2019-04-29T07:11:23.478Z,98722.87
2019-04-29T07:19:57.569Z,98728.65
2019-04-29T07:22:42.914Z,98730.89
2019-04-29T07:25:32.225Z,98729.04
2019-04-29T07:28:02.952Z,98725.69
2019-04-29T07:30:33.303Z,98725.09
2019-04-29T07:33:08.575Z,98730.70
2019-04-29T07:36:10.416Z,98734.01
2019-04-29T07:38:51.284Z,98729.14
2019-04-29T07:47:37.796Z,98720.69
2019-04-29T07:50:48.574Z,98725.45
2019-04-29T07:53:21.907Z,98722.20
2019-04-29T07:55:51.138Z,98729.28
2019-04-29T07:58:22.989Z,98722.88
2019-04-29T08:01:12.708Z,98715.98
2019-04-29T08:04:02.267Z,98723.51
2019-04-29T08:06:38.190Z,98688.49
2019-04-29T08:09:30.023Z,98722.78
2019-04-29T08:12:21.716Z,98724.52
2019-04-29T08:15:11.367Z,98718.21
2019-04-29T08:17:41.665Z,98729.34
2019-04-29T08:20:13.395Z,98728.28
2019-04-29T08:23:04.206Z,98724.53
2019-04-29T08:25:34.664Z,98727.01
2019-04-29T08:28:09.112Z,98728.34
2019-04-29T08:30:41.909Z,98728.47
2019-04-29T08:33:21.057Z,98731.58
2019-04-29T08:36:10.320Z,98727.40
2019-04-29T08:38:40.402Z,98728.31
2019-04-29T08:41:50.850Z,98740.12
2019-04-29T08:44:59.678Z,98736.20
2019-04-29T08:47:44.564Z,98738.98
2019-04-29T08:50:26.207Z,98737.97
2019-04-29T08:53:07.984Z,98731.88
2019-04-29T08:55:48.273Z,98736.92
2019-04-29T08:58:44.398Z,98743.39
2019-04-29T09:01:15.088Z,98740.45
2019-04-29T09:04:28.248Z,98738.39
2019-04-29T09:06:56.614Z,98697.61
2019-04-29T09:09:29.192Z,98748.03
2019-04-29T09:12:29.002Z,98749.51
2019-04-29T09:14:56.165Z,98753.80
2019-04-29T09:17:45.472Z,98758.30
2019-04-29T09:20:36.238Z,98757.86
2019-04-29T09:29:58.789Z,98753.63
2019-04-29T09:32:38.250Z,98745.62
2019-04-29T09:35:28.862Z,98750.82
2019-04-29T09:38:32.576Z,98742.81
2019-04-29T09:41:09.136Z,98743.34
2019-04-29T09:46:48.204Z,98739.70
2019-04-29T09:49:36.017Z,98735.30
2019-04-29T09:52:17.751Z,98729.92
2019-04-29T09:54:49.260Z,98731.20
2019-04-29T09:57:38.821Z,98722.77
2019-04-29T10:03:42.626Z,98732.24
2019-04-29T10:06:34.291Z,98727.66
2019-04-29T10:09:25.139Z,98725.04
2019-04-29T10:12:14.780Z,98717.84
2019-04-29T10:15:20.805Z,98707.48
2019-04-29T10:18:24.961Z,98593.23
2019-04-29T10:24:36.471Z,98708.20
2019-04-29T10:27:44.801Z,98703.48
2019-04-29T10:30:31.124Z,98704.94
2019-04-29T10:33:00.221Z,98695.42
2019-04-29T10:36:09.794Z,98693.03
2019-04-29T10:38:44.895Z,98688.73
2019-04-29T10:45:06.786Z,98686.03
2019-04-29T10:48:15.293Z,98677.09
2019-04-29T10:51:06.933Z,98678.48
2019-04-29T10:54:00.091Z,98678.00
2019-04-29T10:57:10.462Z,98679.30
2019-04-29T11:00:23.444Z,98678.98
2019-04-29T11:16:11.880Z,98663.87
2019-04-29T11:19:23.063Z,98663.59
2019-04-29T11:25:51.109Z,98650.08
2019-04-29T11:31:27.474Z,98636.27
2019-04-29T11:34:35.721Z,98634.30
2019-04-29T11:37:49.959Z,98637.58
2019-04-29T11:46:16.472Z,98637.69
2019-04-29T11:52:05.322Z,98639.20
2019-04-29T11:54:17.926Z,98632.70
2019-04-29T12:00:43.597Z,98622.37
2019-04-29T12:03:18.940Z,98615.52
2019-04-29T12:06:10.352Z,98611.86
2019-04-29T12:09:00.069Z,98602.89
2019-04-29T12:11:49.572Z,98600.61
2019-04-29T12:15:09.077Z,98615.98
2019-04-29T12:21:25.937Z,98609.16
2019-04-29T12:24:37.876Z,98609.05
2019-04-29T12:36:23.854Z,98599.35
2019-04-29T12:42:47.112Z,98602.00
2019-04-29T12:45:35.538Z,98603.33
2019-04-29T12:48:25.375Z,98594.11
2019-04-29T12:51:17.086Z,98594.17
2019-04-29T12:56:58.099Z,98588.67
2019-04-29T12:59:30.577Z,98571.66
2019-04-29T13:05:30.870Z,98598.40
2019-04-29T13:08:24.499Z,98585.18
2019-04-29T13:11:14.652Z,98583.89
2019-04-29T13:14:01.684Z,98582.17
2019-04-29T13:20:12.911Z,98576.83
2019-04-29T13:23:16.920Z,98577.55
2019-04-29T13:25:46.136Z,98576.20
2019-04-29T13:28:29.987Z,98563.48
2019-04-29T13:31:09.869Z,98561.34
2019-04-29T13:33:40.264Z,98559.59
2019-04-29T13:39:58.174Z,98557.45
2019-04-29T13:42:49.167Z,98563.31
2019-04-29T13:52:20.264Z,98543.13
2019-04-29T13:54:52.813Z,98541.84
2019-04-29T13:57:44.980Z,98543.95
2019-04-29T14:00:55.837Z,98538.37
2019-04-29T14:07:01.890Z,98540.02
2019-04-29T14:09:39.264Z,98531.81
2019-04-29T14:15:21.342Z,98538.83
2019-04-29T14:18:12.051Z,98530.45
2019-04-29T14:21:03.169Z,98518.13
2019-04-29T14:24:12.124Z,98525.00
2019-04-29T14:27:04.920Z,98519.02
2019-04-29T14:29:56.239Z,98509.46
2019-04-29T14:32:50.300Z,98513.90
2019-04-29T14:38:35.929Z,98458.94
2019-04-29T14:44:55.779Z,98513.28
2019-04-29T14:48:04.257Z,98515.37
2019-04-29T14:50:49.649Z,98516.41
2019-04-29T14:53:33.506Z,98508.98
2019-04-29T14:59:06.517Z,98511.91
2019-04-29T15:04:31.809Z,98519.77
2019-04-29T15:07:16.920Z,98504.47
2019-04-29T15:09:58.991Z,98497.67
2019-04-29T15:13:11.511Z,98512.80
2019-04-29T15:16:04.743Z,98515.88
2019-04-29T15:18:52.978Z,98506.58
2019-04-29T15:22:01.112Z,98511.41
2019-04-29T15:24:50.507Z,98509.19
2019-04-29T15:27:42.682Z,98508.56
2019-04-29T15:30:36.763Z,98515.02
2019-04-29T15:33:23.083Z,98505.59
2019-04-29T15:36:12.381Z,98510.48
2019-04-29T15:39:09.667Z,98506.55
2019-04-29T15:41:54.676Z,98499.48
2019-04-29T15:45:08.986Z,98501.98
2019-04-29T15:48:02.782Z,98364.78
2019-04-29T15:54:14.449Z,98506.53
2019-04-29T15:56:52.949Z,98500.47
2019-04-29T15:59:48.917Z,98501.14
2019-04-29T16:09:30.469Z,98494.66
2019-04-29T16:12:59.377Z,98519.57
2019-04-29T16:15:27.757Z,98502.39
2019-04-29T16:18:17.203Z,98499.38
2019-04-29T16:21:08.348Z,98505.69
2019-04-29T16:24:00.040Z,98510.95
2019-04-29T16:26:32.026Z,98512.11
2019-04-29T16:29:46.169Z,98500.30
2019-04-29T16:35:34.946Z,98495.25
2019-04-29T16:38:11.655Z,98502.39
2019-04-29T16:43:54.721Z,98522.13
2019-04-29T16:46:35.832Z,98521.09
2019-04-29T16:49:22.956Z,98513.67
2019-04-29T16:51:59.717Z,98511.64
2019-04-29T16:54:33.308Z,98520.22
2019-04-29T16:57:10.059Z,98519.63
2019-04-29T17:00:06.326Z,98512.63
2019-04-29T17:02:43.350Z,98513.80
2019-04-29T17:05:33.521Z,98518.48
2019-04-29T17:08:15.006Z,98525.77
2019-04-29T17:14:13.531Z,98525.73
2019-04-29T17:23:24.440Z,98533.31
2019-04-29T17:25:54.222Z,98538.11
2019-04-29T17:28:58.815Z,98531.72
2019-04-29T17:34:59.398Z,98538.00
2019-04-29T17:37:45.137Z,98537.05
2019-04-29T17:40:07.741Z,98494.75
2019-04-29T17:42:41.466Z,98540.39
2019-04-29T17:45:48.389Z,98541.80
2019-04-29T17:48:57.203Z,98539.58
2019-04-29T17:57:54.870Z,98538.86
2019-04-29T18:07:15.138Z,98536.14
2019-04-29T18:13:28.468Z,98546.91
2019-04-29T18:19:55.401Z,98552.69
2019-04-29T18:23:04.932Z,98554.39
2019-04-29T18:26:17.525Z,98552.50
2019-04-29T18:29:16.072Z,98552.87
2019-04-29T18:31:46.634Z,98552.58
2019-04-29T18:34:17.220Z,98560.66
2019-04-29T18:43:11.271Z,98559.94
2019-04-29T18:49:34.327Z,98563.30
2019-04-29T18:52:25.647Z,98564.84
2019-04-29T18:54:59.708Z,98564.90
2019-04-29T18:57:31.003Z,98562.58
2019-04-29T19:00:22.355Z,98567.95
2019-04-29T19:33:25.315Z,98577.26
2019-04-29T19:45:22.294Z,98574.08
2019-04-29T19:48:11.939Z,98569.86
2019-04-29T19:53:49.152Z,98570.80
2019-04-29T19:56:29.438Z,98570.59
2019-04-29T19:59:14.077Z,98572.10
2019-04-29T20:07:59.903Z,98559.98
2019-04-29T20:10:51.926Z,98426.47
2019-04-29T20:13:30.206Z,98559.63
2019-04-29T20:19:22.913Z,98555.85
2019-04-29T20:22:13.220Z,98550.38
2019-04-29T20:25:03.104Z,98551.77
2019-04-29T20:28:17.573Z,98548.67
2019-04-29T20:31:16.271Z,98545.16
2019-04-29T20:34:06.237Z,98542.56
2019-04-29T20:42:33.217Z,98534.03
2019-04-29T20:48:00.178Z,98529.27
2019-04-29T20:54:02.100Z,98523.52
2019-04-29T20:57:02.127Z,98517.19
2019-04-29T20:59:55.059Z,98515.04
2019-04-29T21:02:48.591Z,98511.75
2019-04-29T21:05:48.264Z,98364.42
2019-04-29T21:09:06.424Z,98508.21
2019-04-29T21:14:42.260Z,98502.02
2019-04-29T21:17:35.287Z,98497.45
2019-04-29T21:20:22.834Z,98493.86
2019-04-29T21:23:19.349Z,98494.77
2019-04-29T21:26:00.513Z,98497.99
2019-04-29T21:47:45.746Z,98472.05
2019-04-29T21:50:54.306Z,98475.50
2019-04-29T21:56:56.334Z,98468.70
2019-04-29T21:59:48.572Z,98478.19
2019-04-29T22:02:29.935Z,98468.61
2019-04-29T22:05:14.903Z,98469.91
2019-04-29T22:10:39.628Z,98464.64
2019-04-29T22:13:24.842Z,98466.00
2019-04-29T22:18:55.381Z,98396.38
2019-04-29T22:24:21.836Z,98457.53
2019-04-29T22:27:07.612Z,98417.89
2019-04-29T22:29:51.269Z,98460.50
2019-04-29T22:32:59.982Z,98454.37
2019-04-29T22:35:51.714Z,98457.53
2019-04-29T22:39:02.044Z,98464.81
2019-04-29T22:42:10.612Z,98468.32
2019-04-29T22:44:42.172Z,98465.20
2019-04-29T22:47:32.547Z,98463.50
2019-04-29T22:50:24.161Z,98466.66
2019-04-29T22:53:14.825Z,98470.56
2019-04-29T22:56:08.989Z,98469.17
2019-04-29T22:58:57.542Z,98460.75
2019-04-29T23:04:59.858Z,98461.31
2019-04-29T23:07:52.936Z,98456.24
2019-04-29T23:10:41.588Z,98458.51
2019-04-29T23:13:32.402Z,98455.00
2019-04-29T23:16:23.298Z,98447.03
2019-04-29T23:19:31.618Z,98441.41
2019-04-29T23:22:39.980Z,98443.12
2019-04-29T23:25:52.983Z,98438.75
2019-04-29T23:28:42.272Z,98436.45
2019-04-29T23:31:31.982Z,98439.67
2019-04-29T23:34:02.330Z,98440.97
2019-04-29T23:36:51.961Z,98438.61
2019-04-29T23:42:34.977Z,98434.59
2019-04-29T23:45:25.267Z,98431.89
2019-04-29T23:48:07.816Z,98424.30
2019-04-29T23:50:56.646Z,98434.44
2019-04-29T23:53:36.313Z,98440.66
